Tarporley, United Kingdom
Current Conditions -  °F | °C
As of 3:50 PM on Sunday 21 Dec 2014 (Local Time) from EGNR Reporting Station
Few Clouds Few Clouds  
Wind Chill: 55°   Ceiling: Unl
Heat Index: 55°   Visibility: 6mi
Dew Point: 48°   Wind: 25mph
Humidity: 77%   Direction: 230°SW
Pressure: 30.03"   Gusts: NA
Location:  53.16°N, 2.67°W
Report Text: EGNR 211550Z 23022KT 9999 FEW030 13/09 Q1017
Loading
Personal Weather Stations






























Interactive Weather Map New forecast layout! Learn more

10-Day Weather Forecast

Advertisements
Track Severe Weather on mobile